Time;durP1;ratioP1;P1;durP2;ratioP2;P2;SDS_P1;SDS_P2;PMS_P1;PMS_P2;Temp;Humidity;BMP_temperature;BMP_pressure;BME280_temperature;BME280_humidity;BME280_pressure;Samples;Min_cycle;Max_cycle;Signal;HPM_P1;HPM_P2
2023/08/25 00:01:59;;;;;;;5.17;2.20;;;;;;;21.45;100.00;100528.13;5094754;28;20464;-69
2023/08/25 00:04:26;;;;;;;4.30;2.00;;;;;;;21.42;100.00;100524.91;5094912;28;20464;-69
2023/08/25 00:06:52;;;;;;;3.80;2.10;;;;;;;21.40;100.00;100516.25;5094416;28;20543;-69
2023/08/25 00:09:19;;;;;;;4.60;2.43;;;;;;;21.38;100.00;100506.75;5094437;28;20464;-69
2023/08/25 00:11:46;;;;;;;3.60;1.87;;;;;;;21.38;100.00;100506.75;5094337;28;20528;-69
2023/08/25 00:14:12;;;;;;;4.23;1.70;;;;;;;21.41;100.00;100501.28;5094081;28;20437;-69
2023/08/25 00:16:40;;;;;;;3.97;2.47;;;;;;;21.45;100.00;100489.53;5093719;28;20571;-69
2023/08/25 00:19:07;;;;;;;4.83;2.30;;;;;;;21.44;100.00;100497.00;5094251;28;20460;-69
2023/08/25 00:21:34;;;;;;;3.20;1.90;;;;;;;21.37;100.00;100492.19;5094180;28;20452;-69
2023/08/25 00:24:00;;;;;;;3.17;1.77;;;;;;;21.35;100.00;100496.50;5094341;28;20789;-69
2023/08/25 00:26:27;;;;;;;3.53;2.03;;;;;;;21.28;100.00;100486.16;5094080;28;20488;-69
2023/08/25 00:28:54;;;;;;;3.93;2.60;;;;;;;21.25;100.00;100475.91;5094124;28;21167;-69
2023/08/25 00:31:20;;;;;;;4.20;2.27;;;;;;;21.25;100.00;100486.94;5094269;28;20480;-69
2023/08/25 00:33:51;;;;;;;3.27;2.17;;;;;;;21.26;100.00;100482.19;5093949;28;20607;-69
2023/08/25 00:36:18;;;;;;;3.60;1.87;;;;;;;21.26;100.00;100476.69;5094106;28;20519;-69
2023/08/25 00:38:45;;;;;;;3.83;2.00;;;;;;;21.28;100.00;100477.09;5093864;28;20528;-69
2023/08/25 00:41:11;;;;;;;5.40;3.30;;;;;;;21.28;100.00;100483.41;5094166;28;20447;-69
2023/08/25 00:43:39;;;;;;;3.97;2.43;;;;;;;21.24;100.00;100490.81;5094628;28;20439;-69
2023/08/25 00:46:07;;;;;;;5.07;2.93;;;;;;;21.22;100.00;100479.41;5092790;28;20448;-69
2023/08/25 00:48:34;;;;;;;4.23;2.67;;;;;;;21.25;100.00;100470.41;5094028;28;20441;-69
2023/08/25 00:51:04;;;;;;;4.27;2.83;;;;;;;21.30;100.00;100472.03;5093856;28;20536;-69
2023/08/25 00:53:31;;;;;;;4.10;2.43;;;;;;;21.34;100.00;100457.13;5093938;28;20510;-69
2023/08/25 00:55:58;;;;;;;3.70;1.93;;;;;;;21.39;100.00;100456.78;5094042;28;20479;-69
2023/08/25 00:58:25;;;;;;;3.20;2.20;;;;;;;21.39;100.00;100445.78;5093691;28;20464;-69
2023/08/25 01:00:54;;;;;;;3.67;2.43;;;;;;;21.42;100.00;100445.00;5093966;28;20436;-69
2023/08/25 01:03:21;;;;;;;4.40;2.40;;;;;;;21.43;100.00;100432.03;5093285;28;20958;-69
2023/08/25 01:05:48;;;;;;;4.43;2.50;;;;;;;21.44;100.00;100441.88;5093535;28;20488;-69
2023/08/25 01:08:17;;;;;;;3.90;2.43;;;;;;;21.45;100.00;100423.38;5093546;28;20882;-69
2023/08/25 01:10:52;;;;;;;5.27;3.10;;;;;;;21.46;100.00;100411.97;5093861;28;20501;-71
2023/08/25 01:13:27;;;;;;;4.43;2.73;;;;;;;21.49;100.00;100411.22;5093573;28;20429;-72
2023/08/25 01:15:55;;;;;;;3.97;2.40;;;;;;;21.47;100.00;100405.31;5093745;28;20513;-72
2023/08/25 01:18:25;;;;;;;3.53;2.20;;;;;;;21.47;100.00;100415.50;5093095;28;20519;-74
2023/08/25 01:20:53;;;;;;;4.70;3.20;;;;;;;21.43;100.00;100401.72;5093759;28;20429;-73
2023/08/25 01:23:32;;;;;;;4.50;2.60;;;;;;;21.44;100.00;100405.25;5093396;28;20443;-73
2023/08/25 01:26:00;;;;;;;4.70;2.50;;;;;;;21.42;100.00;100406.41;5093046;28;20832;-73
2023/08/25 01:28:28;;;;;;;4.30;2.30;;;;;;;21.42;100.00;100409.16;5093354;28;20963;-72
2023/08/25 01:30:56;;;;;;;3.40;2.03;;;;;;;21.44;100.00;100397.00;5093328;28;20965;-73
2023/08/25 01:33:23;;;;;;;4.77;2.50;;;;;;;21.46;100.00;100400.94;5093494;28;20432;-73
2023/08/25 01:36:03;;;;;;;5.87;2.20;;;;;;;21.49;100.00;100399.41;5093366;28;20529;-73
2023/08/25 01:38:36;;;;;;;4.13;2.40;;;;;;;21.48;100.00;100400.59;5093391;28;20897;-73
2023/08/25 01:41:08;;;;;;;4.30;2.70;;;;;;;21.46;100.00;100400.16;5093348;28;20940;-73
2023/08/25 01:43:45;;;;;;;3.93;2.60;;;;;;;21.46;100.00;100398.19;5093385;28;20428;-73
2023/08/25 01:46:15;;;;;;;3.93;2.53;;;;;;;21.48;100.00;100406.09;5093372;28;20908;-73
2023/08/25 01:48:43;;;;;;;3.37;2.03;;;;;;;21.48;100.00;100404.13;5093173;28;20436;-74
2023/08/25 01:51:11;;;;;;;3.87;2.37;;;;;;;21.50;100.00;100400.97;5093573;28;20440;-73
2023/08/25 01:53:38;;;;;;;4.53;2.20;;;;;;;21.48;100.00;100403.34;5093159;28;20464;-73
2023/08/25 01:56:06;;;;;;;3.50;2.20;;;;;;;21.50;100.00;100399.00;5092977;28;20488;-73
2023/08/25 01:58:33;;;;;;;4.27;2.27;;;;;;;21.52;100.00;100387.63;5096265;28;20524;-73
2023/08/25 02:00:59;;;;;;;4.30;2.27;;;;;;;21.53;100.00;100378.19;5096866;28;20468;-73
2023/08/25 02:03:26;;;;;;;4.63;2.77;;;;;;;21.55;100.00;100382.13;5096490;28;20444;-73
2023/08/25 02:05:52;;;;;;;4.90;2.00;;;;;;;21.54;100.00;100377.78;5097290;28;20833;-73
2023/08/25 02:08:19;;;;;;;3.93;2.27;;;;;;;21.52;99.69;100379.34;5096769;28;20527;-73
2023/08/25 02:10:46;;;;;;;3.93;2.30;;;;;;;21.49;98.33;100380.91;5096441;28;20953;-73
2023/08/25 02:13:13;;;;;;;4.53;2.53;;;;;;;21.51;97.88;100373.03;5096681;28;20444;-73
2023/08/25 02:15:45;;;;;;;3.70;2.10;;;;;;;21.50;97.03;100367.91;5096296;28;20475;-73
2023/08/25 02:18:12;;;;;;;3.60;1.57;;;;;;;21.49;96.36;100363.56;5096626;28;20416;-73
2023/08/25 02:20:39;;;;;;;4.10;2.07;;;;;;;21.49;95.10;100366.31;5096515;28;20437;-74
2023/08/25 02:23:06;;;;;;;3.70;2.37;;;;;;;21.54;93.61;100368.72;5096190;28;20817;-74
2023/08/25 02:25:33;;;;;;;3.30;2.23;;;;;;;21.56;93.43;100364.44;5096350;28;20551;-73
2023/08/25 02:28:00;;;;;;;3.60;1.83;;;;;;;21.58;93.87;100367.59;5096497;28;20433;-75
2023/08/25 02:30:28;;;;;;;5.40;3.03;;;;;;;21.61;94.74;100377.88;5096059;28;20885;-73
2023/08/25 02:32:55;;;;;;;4.47;2.60;;;;;;;21.62;94.53;100373.13;5096276;28;20853;-74
2023/08/25 02:35:22;;;;;;;4.57;2.80;;;;;;;21.64;94.68;100371.56;5096439;28;20448;-74
2023/08/25 02:38:00;;;;;;;3.77;1.97;;;;;;;21.67;95.91;100359.78;5096552;28;20815;-74
2023/08/25 02:40:28;;;;;;;3.33;2.00;;;;;;;21.72;97.45;100353.13;5096157;28;20913;-73
2023/08/25 02:42:56;;;;;;;3.73;2.33;;;;;;;21.71;98.86;100357.06;5096497;28;20440;-74
2023/08/25 02:45:24;;;;;;;3.90;2.27;;;;;;;21.72;99.20;100349.56;5095620;28;20463;-74
2023/08/25 02:47:52;;;;;;;3.23;1.77;;;;;;;21.64;99.80;100344.00;5096377;28;20435;-73
2023/08/25 02:50:19;;;;;;;4.07;2.23;;;;;;;21.60;100.00;100342.38;5095994;28;20534;-74
2023/08/25 02:52:45;;;;;;;3.40;1.97;;;;;;;21.57;100.00;100337.66;5096155;28;20477;-73
2023/08/25 02:55:14;;;;;;;3.43;1.90;;;;;;;21.54;100.00;100335.66;5095980;28;20543;-73
2023/08/25 02:57:41;;;;;;;5.30;2.60;;;;;;;21.49;100.00;100331.28;5095640;28;20503;-73
2023/08/25 03:00:10;;;;;;;3.33;2.00;;;;;;;21.49;100.00;100327.75;5095682;28;20440;-73
2023/08/25 03:02:37;;;;;;;4.90;2.47;;;;;;;21.47;100.00;100338.34;5095609;28;20509;-74
2023/08/25 03:05:10;;;;;;;3.30;2.13;;;;;;;21.44;100.00;100342.66;5095789;28;20513;-73
2023/08/25 03:07:36;;;;;;;4.00;2.33;;;;;;;21.44;100.00;100339.91;5097429;28;20468;-73
2023/08/25 03:10:03;;;;;;;3.83;2.13;;;;;;;21.36;100.00;100333.53;5095968;28;20476;-73
2023/08/25 03:12:30;;;;;;;4.90;2.03;;;;;;;21.35;100.00;100334.72;5096584;28;20448;-73
2023/08/25 03:14:56;;;;;;;3.47;2.17;;;;;;;21.36;100.00;100330.78;5095486;28;20535;-73
2023/08/25 03:17:23;;;;;;;4.07;2.77;;;;;;;21.34;100.00;100335.91;5095305;28;20555;-73
2023/08/25 03:19:50;;;;;;;3.63;2.20;;;;;;;21.28;100.00;100331.84;5095510;28;20462;-73
2023/08/25 03:22:18;;;;;;;4.47;2.33;;;;;;;21.25;100.00;100337.31;5096081;28;20436;-74
2023/08/25 03:24:45;;;;;;;4.97;2.13;;;;;;;21.19;100.00;100342.41;5095568;28;20932;-73
2023/08/25 03:27:12;;;;;;;3.87;2.57;;;;;;;21.17;100.00;100336.50;5095448;28;20432;-73
2023/08/25 03:29:39;;;;;;;3.60;2.03;;;;;;;21.12;100.00;100334.09;5094874;28;20888;-75
2023/08/25 03:32:06;;;;;;;4.73;3.00;;;;;;;21.09;100.00;100341.13;5095754;28;20487;-73
2023/08/25 03:34:32;;;;;;;4.17;2.47;;;;;;;21.03;100.00;100337.16;5095247;28;20447;-74
2023/08/25 03:36:59;;;;;;;4.60;2.50;;;;;;;20.99;100.00;100335.53;5095318;28;20480;-73
2023/08/25 03:39:27;;;;;;;4.00;2.20;;;;;;;20.95;100.00;100335.47;5094985;28;20551;-73
2023/08/25 03:41:54;;;;;;;4.27;2.40;;;;;;;20.93;100.00;100340.56;5094967;28;20940;-73
2023/08/25 03:44:21;;;;;;;4.30;2.40;;;;;;;20.91;100.00;100338.19;5094514;28;20843;-73
2023/08/25 03:46:47;;;;;;;4.07;2.80;;;;;;;20.88;100.00;100333.44;5095009;28;20480;-73
2023/08/25 03:49:14;;;;;;;5.80;2.90;;;;;;;20.87;100.00;100325.56;5095058;28;20523;-73
2023/08/25 03:51:40;;;;;;;4.00;2.70;;;;;;;20.87;100.00;100331.06;5095361;28;20518;-73
2023/08/25 03:54:07;;;;;;;4.60;2.20;;;;;;;20.85;100.00;100333.38;5094301;28;20489;-73
2023/08/25 03:56:35;;;;;;;4.17;2.57;;;;;;;20.81;100.00;100325.13;5094485;28;20586;-73
2023/08/25 03:59:02;;;;;;;4.90;3.07;;;;;;;20.82;100.00;100332.19;5095072;28;20527;-73
2023/08/25 04:01:28;;;;;;;4.60;2.67;;;;;;;20.82;100.00;100329.44;5094936;28;20809;-72
2023/08/25 04:03:55;;;;;;;5.53;2.77;;;;;;;20.80;100.00;100334.50;5094908;28;20462;-73
2023/08/25 04:06:21;;;;;;;3.93;2.23;;;;;;;20.82;100.00;100332.19;5094260;28;20547;-73
2023/08/25 04:08:48;;;;;;;4.10;2.43;;;;;;;20.78;100.00;100325.84;5094184;28;20948;-74
2023/08/25 04:11:15;;;;;;;4.80;3.17;;;;;;;20.80;100.00;100329.00;5094415;28;20445;-73
2023/08/25 04:13:42;;;;;;;4.10;2.77;;;;;;;20.78;100.00;100336.09;5094256;28;20440;-73
2023/08/25 04:16:09;;;;;;;6.00;3.10;;;;;;;20.73;100.00;100333.66;5093926;28;20518;-71
2023/08/25 04:18:36;;;;;;;4.77;3.00;;;;;;;20.72;100.00;100337.56;5094140;28;20480;-74
2023/08/25 04:21:02;;;;;;;6.23;3.37;;;;;;;20.70;100.00;100339.91;5094240;28;20793;-69
2023/08/25 04:23:29;;;;;;;4.70;2.57;;;;;;;20.69;100.00;100333.63;5094117;28;20450;-69
2023/08/25 04:25:56;;;;;;;3.40;2.10;;;;;;;20.68;100.00;100331.25;5093698;28;21031;-69
2023/08/25 04:28:24;;;;;;;3.93;2.40;;;;;;;20.68;100.00;100337.56;5093979;28;20531;-69
2023/08/25 04:30:54;;;;;;;4.30;2.33;;;;;;;20.70;100.00;100328.91;5094062;28;20444;-69
2023/08/25 04:33:20;;;;;;;3.93;2.47;;;;;;;20.69;100.00;100328.13;5094195;28;20437;-69
2023/08/25 04:35:47;;;;;;;5.40;2.70;;;;;;;20.69;100.00;100317.09;5093646;28;20539;-69
2023/08/25 04:38:14;;;;;;;4.17;2.70;;;;;;;20.72;100.00;100321.03;5093834;28;20525;-69
2023/08/25 04:40:40;;;;;;;4.40;3.03;;;;;;;20.77;100.00;100329.00;5093848;28;20440;-69
2023/08/25 04:43:07;;;;;;;4.57;2.93;;;;;;;20.77;100.00;100332.53;5093988;28;20436;-69
2023/08/25 04:45:33;;;;;;;5.07;2.73;;;;;;;20.82;100.00;100323.94;5093676;28;20456;-69
2023/08/25 04:48:02;;;;;;;4.13;2.70;;;;;;;20.84;100.00;100329.84;5093761;28;20490;-69
2023/08/25 04:50:28;;;;;;;3.97;2.63;;;;;;;20.86;100.00;100321.22;5093678;28;20805;-69
2023/08/25 04:52:55;;;;;;;4.10;2.90;;;;;;;20.89;100.00;100309.44;5093725;28;20447;-69
2023/08/25 04:55:21;;;;;;;4.90;2.70;;;;;;;20.91;100.00;100316.16;5093352;28;20491;-69
2023/08/25 04:57:49;;;;;;;4.63;2.70;;;;;;;20.95;100.00;100318.16;5093615;28;20567;-69
2023/08/25 05:00:16;;;;;;;5.60;3.60;;;;;;;20.96;100.00;100319.75;5093610;28;20470;-69
2023/08/25 05:02:42;;;;;;;4.43;3.13;;;;;;;20.95;100.00;100321.72;5093980;28;20515;-69
2023/08/25 05:05:11;;;;;;;5.03;2.93;;;;;;;20.95;100.00;100318.97;5093522;28;20564;-69
2023/08/25 05:07:38;;;;;;;5.70;3.07;;;;;;;20.89;100.00;100318.53;5093878;28;20439;-69
2023/08/25 05:10:06;;;;;;;5.10;2.70;;;;;;;20.89;100.00;100315.75;5093690;28;20444;-69
2023/08/25 05:12:32;;;;;;;5.70;3.27;;;;;;;20.89;100.00;100309.44;5093214;28;20488;-69
2023/08/25 05:14:59;;;;;;;4.37;2.70;;;;;;;20.87;100.00;100315.34;5093229;28;20895;-69
2023/08/25 05:17:25;;;;;;;6.07;3.37;;;;;;;20.88;100.00;100314.16;5093085;28;20537;-69
2023/08/25 05:19:53;;;;;;;4.23;2.57;;;;;;;20.91;100.00;100310.66;5093415;28;20543;-69
2023/08/25 05:22:21;;;;;;;6.67;4.13;;;;;;;20.94;100.00;100311.06;5093803;28;20440;-69
2023/08/25 05:24:47;;;;;;;4.60;3.00;;;;;;;20.96;100.00;100317.00;5093012;28;20940;-69
2023/08/25 05:27:14;;;;;;;3.73;2.17;;;;;;;21.02;100.00;100312.72;5093407;28;20470;-69
2023/08/25 05:29:40;;;;;;;4.00;2.30;;;;;;;21.04;100.00;100302.91;5093051;28;20437;-69
2023/08/25 05:32:07;;;;;;;5.43;2.53;;;;;;;21.08;100.00;100311.22;5094130;28;20523;-69
2023/08/25 05:34:34;;;;;;;4.23;2.37;;;;;;;21.08;100.00;100303.75;5097701;28;20447;-69
2023/08/25 05:37:01;;;;;;;5.37;3.03;;;;;;;21.09;100.00;100307.28;5097261;28;20491;-69
2023/08/25 05:39:29;;;;;;;4.30;2.40;;;;;;;21.06;100.00;100308.03;5097871;28;20436;-69
2023/08/25 05:41:55;;;;;;;5.10;2.57;;;;;;;21.04;100.00;100307.63;5097160;28;20526;-69
2023/08/25 05:44:23;;;;;;;4.50;2.40;;;;;;;21.06;100.00;100302.53;5096887;28;20976;-69
2023/08/25 05:46:51;;;;;;;4.10;2.63;;;;;;;21.07;100.00;100304.09;5097347;28;20552;-69
2023/08/25 05:49:17;;;;;;;4.17;2.67;;;;;;;21.04;100.00;100302.13;5096739;28;20535;-69
2023/08/25 05:51:44;;;;;;;5.93;3.10;;;;;;;21.02;100.00;100298.94;5097368;28;20524;-69
2023/08/25 05:54:11;;;;;;;4.47;2.70;;;;;;;20.99;100.00;100296.97;5096993;28;20436;-69
2023/08/25 05:56:39;;;;;;;4.73;2.80;;;;;;;21.04;100.00;100294.66;5096853;28;20463;-69
2023/08/25 05:59:05;;;;;;;5.23;3.60;;;;;;;21.12;100.00;100292.78;5096805;28;20516;-70
2023/08/25 06:01:32;;;;;;;6.50;4.20;;;;;;;21.28;97.12;100287.78;5096613;28;20946;-70
2023/08/25 06:03:59;;;;;;;6.33;4.00;;;;;;;21.55;91.53;100298.66;5096811;28;20447;-71
2023/08/25 06:06:26;;;;;;;6.33;4.70;;;;;;;21.73;91.91;100291.28;5096687;28;20470;-72
2023/08/25 06:08:52;;;;;;;6.20;4.27;;;;;;;21.89;89.86;100297.31;5096402;28;20897;-72
2023/08/25 06:11:19;;;;;;;7.77;4.67;;;;;;;21.98;89.50;100291.44;5096901;28;20527;-74
2023/08/25 06:13:47;;;;;;;7.63;3.83;;;;;;;22.09;89.80;100302.53;5096727;28;20950;-74
2023/08/25 06:16:13;;;;;;;6.23;4.10;;;;;;;22.21;88.19;100293.16;5096226;28;20533;-75
2023/08/25 06:18:41;;;;;;;5.37;3.53;;;;;;;22.24;88.21;100301.47;5096910;28;20484;-74
2023/08/25 06:21:08;;;;;;;5.80;3.57;;;;;;;22.35;87.75;100298.75;5097052;28;20789;-74
2023/08/25 06:23:34;;;;;;;6.67;4.20;;;;;;;22.39;88.04;100305.84;5096698;28;20527;-69
2023/08/25 06:26:01;;;;;;;5.97;3.70;;;;;;;22.48;86.81;100304.72;5096751;28;20453;-69
2023/08/25 06:28:27;;;;;;;5.67;3.47;;;;;;;22.54;86.25;100301.19;5096521;28;20524;-69
2023/08/25 06:30:56;;;;;;;5.43;3.47;;;;;;;22.67;84.07;100309.91;5096391;28;20432;-69
2023/08/25 06:33:22;;;;;;;4.90;3.33;;;;;;;22.79;83.31;100309.53;5096318;28;20470;-69
2023/08/25 06:35:49;;;;;;;7.23;3.90;;;;;;;22.90;83.52;100313.16;5095902;28;20503;-69
2023/08/25 06:38:16;;;;;;;6.53;3.77;;;;;;;23.00;83.71;100308.03;5096132;28;20483;-70
2023/08/25 06:40:42;;;;;;;6.00;4.30;;;;;;;23.06;83.01;100315.53;5096071;28;20437;-72
2023/08/25 06:43:09;;;;;;;4.10;2.80;;;;;;;23.10;83.80;100321.84;5095683;28;20472;-70
2023/08/25 06:45:35;;;;;;;9.70;3.77;;;;;;;23.13;83.21;100314.75;5095864;28;20486;-71
2023/08/25 06:48:04;;;;;;;5.83;3.63;;;;;;;23.21;83.06;100310.03;5095952;28;20460;-69
2023/08/25 06:50:31;;;;;;;5.10;3.30;;;;;;;23.27;82.79;100322.28;5095902;28;20441;-69
2023/08/25 06:52:57;;;;;;;4.60;3.07;;;;;;;23.30;83.44;100325.06;5095947;28;20807;-70
2023/08/25 06:55:25;;;;;;;4.57;3.07;;;;;;;23.39;78.93;100325.44;5095531;28;20456;-69
2023/08/25 06:57:51;;;;;;;4.30;2.10;;;;;;;23.44;79.15;100329.00;5095986;28;20563;-69
2023/08/25 07:00:19;;;;;;;3.97;2.10;;;;;;;23.56;79.12;100325.84;5096074;28;20475;-69
2023/08/25 07:02:45;;;;;;;3.10;1.40;;;;;;;23.64;78.22;100322.72;5095596;28;20440;-69
2023/08/25 07:05:14;;;;;;;3.63;2.17;;;;;;;23.71;78.12;100321.91;5095582;28;20461;-69
2023/08/25 07:07:42;;;;;;;3.87;2.33;;;;;;;23.83;77.03;100318.72;5095974;28;20460;-69
2023/08/25 07:10:10;;;;;;;3.33;1.80;;;;;;;23.96;76.97;100321.09;5095983;28;20440;-69
2023/08/25 07:12:37;;;;;;;3.40;1.77;;;;;;;24.06;77.57;100323.03;5095394;28;20469;-69
2023/08/25 07:15:04;;;;;;;3.70;2.00;;;;;;;24.07;76.63;100328.16;5094950;28;20476;-69
2023/08/25 07:17:30;;;;;;;3.67;2.27;;;;;;;24.15;76.93;100318.66;5095762;28;20444;-69
2023/08/25 07:19:57;;;;;;;4.47;2.77;;;;;;;24.29;76.68;100322.56;5095742;28;20440;-70
2023/08/25 07:22:26;;;;;;;3.83;2.30;;;;;;;24.30;75.98;100326.91;5095286;28;20468;-70
2023/08/25 07:24:53;;;;;;;3.40;2.10;;;;;;;24.34;75.00;100322.94;5094998;28;20444;-69
2023/08/25 07:27:20;;;;;;;3.77;2.20;;;;;;;24.33;74.37;100318.59;5095439;28;20440;-69
2023/08/25 07:29:46;;;;;;;3.93;2.17;;;;;;;24.40;73.10;100328.91;5095131;28;20940;-69
2023/08/25 07:32:13;;;;;;;3.90;2.17;;;;;;;24.50;73.51;100327.25;5095349;28;20432;-69
2023/08/25 07:34:44;;;;;;;4.50;2.30;;;;;;;24.61;73.79;100322.44;5095056;28;20471;-69
2023/08/25 07:37:11;;;;;;;3.00;1.60;;;;;;;24.65;73.45;100323.22;5095044;28;20421;-69
2023/08/25 07:39:40;;;;;;;3.40;1.80;;;;;;;24.71;73.39;100324.41;5095265;28;20480;-69
2023/08/25 07:42:07;;;;;;;3.60;2.00;;;;;;;24.78;72.46;100320.78;5095019;28;20519;-69
2023/08/25 07:44:33;;;;;;;3.40;2.10;;;;;;;24.85;72.42;100324.31;5095257;28;20813;-70
2023/08/25 07:47:00;;;;;;;3.10;1.87;;;;;;;24.92;73.10;100332.59;5094758;28;20460;-69
2023/08/25 07:49:27;;;;;;;4.27;2.50;;;;;;;24.95;74.52;100322.66;5095206;28;20486;-69
2023/08/25 07:51:53;;;;;;;3.83;2.13;;;;;;;24.98;70.98;100330.19;5094451;28;21005;-69
2023/08/25 07:54:20;;;;;;;4.73;2.70;;;;;;;25.09;69.95;100338.44;5094380;28;20440;-69
2023/08/25 07:56:48;;;;;;;5.13;2.93;;;;;;;25.12;70.06;100332.09;5094734;28;20478;-71
2023/08/25 07:59:15;;;;;;;5.83;3.10;;;;;;;25.19;68.94;100326.50;5094412;28;20488;-70
2023/08/25 08:01:42;;;;;;;5.80;2.37;;;;;;;25.25;70.86;100324.09;5094487;28;20437;-70
2023/08/25 08:04:09;;;;;;;4.20;2.70;;;;;;;25.25;72.42;100330.41;5094784;28;20447;-70
2023/08/25 08:06:36;;;;;;;6.20;2.53;;;;;;;25.22;71.44;100334.00;5094348;28;20547;-70
2023/08/25 08:09:06;;;;;;;5.10;3.00;;;;;;;25.28;72.64;100332.38;5094723;28;20440;-70
2023/08/25 08:11:33;;;;;;;3.87;2.30;;;;;;;25.26;72.08;100337.53;5094009;28;20445;-70
2023/08/25 08:14:02;;;;;;;4.53;2.43;;;;;;;25.28;70.81;100346.25;5094259;28;20547;-70
2023/08/25 08:16:29;;;;;;;5.70;2.50;;;;;;;25.38;69.83;100352.91;5093739;28;20464;-70
2023/08/25 08:18:56;;;;;;;4.20;2.63;;;;;;;25.40;69.59;100350.50;5093832;28;20488;-71
2023/08/25 08:21:23;;;;;;;4.40;2.47;;;;;;;25.52;69.73;100343.69;5094109;28;20440;-71
2023/08/25 08:23:49;;;;;;;4.70;2.80;;;;;;;25.53;69.18;100350.78;5094476;28;20526;-71
2023/08/25 08:26:17;;;;;;;4.50;2.50;;;;;;;25.58;68.63;100347.56;5094051;28;20452;-71
2023/08/25 08:28:43;;;;;;;6.30;1.83;;;;;;;25.69;69.01;100348.28;5094056;28;20528;-70
2023/08/25 08:31:18;;;;;;;3.13;1.57;;;;;;;25.73;69.88;100348.25;5093678;28;20932;-70
2023/08/25 08:33:44;;;;;;;3.80;2.20;;;;;;;25.76;70.26;100356.56;5093660;28;20425;-71
2023/08/25 08:36:11;;;;;;;3.10;1.60;;;;;;;25.86;70.04;100355.69;5093894;28;20561;-70
2023/08/25 08:38:38;;;;;;;3.43;1.70;;;;;;;25.97;68.42;100352.78;5093898;28;20549;-70
2023/08/25 08:41:04;;;;;;;3.87;2.60;;;;;;;26.05;67.54;100356.28;5094025;28;20432;-70
2023/08/25 08:43:35;;;;;;;3.77;2.17;;;;;;;26.08;68.52;100349.94;5093513;28;20952;-70
2023/08/25 08:46:03;;;;;;;4.00;1.87;;;;;;;26.17;68.09;100350.22;5093854;28;20462;-70
2023/08/25 08:48:32;;;;;;;4.33;1.80;;;;;;;26.28;65.93;100364.75;5093748;28;20446;-70
2023/08/25 08:51:00;;;;;;;3.90;2.20;;;;;;;26.38;66.18;100363.06;5093797;28;20472;-70
2023/08/25 08:53:26;;;;;;;3.53;2.00;;;;;;;26.44;64.52;100367.00;5093994;28;20447;-70
2023/08/25 08:55:54;;;;;;;3.00;1.90;;;;;;;26.40;65.19;100366.22;5093660;28;20456;-70
2023/08/25 08:58:21;;;;;;;4.17;2.70;;;;;;;26.45;63.95;100371.34;5093965;28;20484;-71
2023/08/25 09:00:48;;;;;;;3.47;2.03;;;;;;;26.51;65.20;100371.69;5093724;28;20437;-70
2023/08/25 09:03:19;;;;;;;3.37;1.67;;;;;;;26.57;65.83;100370.03;5093772;28;20437;-70
2023/08/25 09:05:48;;;;;;;3.17;1.90;;;;;;;26.63;64.99;100379.47;5093213;28;20509;-70
2023/08/25 09:08:16;;;;;;;4.17;2.00;;;;;;;26.69;65.92;100383.34;5096759;28;20519;-70
2023/08/25 09:10:43;;;;;;;3.10;1.60;;;;;;;26.68;62.75;100387.34;5097779;28;20810;-70
2023/08/25 09:13:10;;;;;;;3.90;1.97;;;;;;;26.75;62.13;100380.94;5098181;28;20439;-70
2023/08/25 09:15:37;;;;;;;3.73;2.00;;;;;;;26.80;62.29;100378.47;5097116;28;20541;-71
2023/08/25 09:18:06;;;;;;;2.70;1.40;;;;;;;26.73;64.88;100384.09;5097272;28;20827;-71
2023/08/25 09:20:34;;;;;;;3.63;1.80;;;;;;;26.84;62.79;100379.19;5097219;28;20857;-70
2023/08/25 09:23:03;;;;;;;2.97;1.50;;;;;;;26.94;63.83;100383.03;5097664;28;20999;-70
2023/08/25 09:25:31;;;;;;;3.07;1.60;;;;;;;27.05;64.15;100389.25;5097727;28;20471;-70
2023/08/25 09:27:59;;;;;;;3.13;1.70;;;;;;;27.12;62.82;100389.16;5097865;28;20441;-70
2023/08/25 09:30:35;;;;;;;3.47;1.77;;;;;;;27.20;64.04;100378.72;5097078;28;20436;-70
2023/08/25 09:33:04;;;;;;;3.70;2.20;;;;;;;27.36;62.17;100390.03;5097399;28;20480;-70
2023/08/25 09:35:31;;;;;;;3.00;1.73;;;;;;;27.45;63.45;100381.13;5097425;28;20500;-71
2023/08/25 09:37:57;;;;;;;3.00;1.53;;;;;;;27.61;60.03;100384.03;5097304;28;20452;-71
2023/08/25 09:40:26;;;;;;;2.70;1.10;;;;;;;27.76;59.39;100384.63;5097275;28;20443;-71
2023/08/25 09:42:58;;;;;;;3.17;1.13;;;;;;;27.82;59.01;100382.16;5097235;28;20537;-71
2023/08/25 09:45:28;;;;;;;3.37;1.20;;;;;;;27.90;57.99;100383.59;5097083;28;20547;-71
2023/08/25 09:47:55;;;;;;;2.87;1.20;;;;;;;27.98;59.55;100387.03;5097369;28;20468;-71
2023/08/25 09:50:22;;;;;;;3.43;1.20;;;;;;;28.04;57.68;100390.91;5097076;28;20471;-71
2023/08/25 09:52:53;;;;;;;3.00;1.50;;;;;;;27.99;57.79;100389.41;5096930;28;20468;-70
2023/08/25 09:55:21;;;;;;;2.33;0.83;;;;;;;28.05;58.78;100395.25;5096553;28;20976;-71
2023/08/25 09:57:50;;;;;;;2.73;1.17;;;;;;;28.12;58.14;100411.84;5097316;28;20442;-70
2023/08/25 10:00:19;;;;;;;2.50;0.90;;;;;;;28.23;58.33;100409.63;5096546;28;20479;-71
2023/08/25 10:02:46;;;;;;;3.30;1.20;;;;;;;28.38;59.44;100422.13;5096657;28;20450;-71
2023/08/25 10:05:13;;;;;;;2.63;1.13;;;;;;;28.45;57.62;100414.84;5097060;28;20884;-70
2023/08/25 10:07:42;;;;;;;2.20;0.73;;;;;;;28.45;56.68;100418.41;5096376;28;20438;-70
2023/08/25 10:10:10;;;;;;;2.27;0.93;;;;;;;28.41;58.25;100415.69;5096362;28;20474;-70
2023/08/25 10:12:38;;;;;;;2.90;1.37;;;;;;;28.33;59.75;100408.69;5096569;28;20520;-70
2023/08/25 10:15:09;;;;;;;2.17;0.97;;;;;;;28.27;57.97;100412.38;5096398;28;21005;-70
2023/08/25 10:17:37;;;;;;;3.50;0.83;;;;;;;28.45;57.99;100409.28;5096177;28;20424;-70
2023/08/25 10:20:09;;;;;;;2.50;1.03;;;;;;;28.56;57.52;100398.72;5096784;28;20483;-70
2023/08/25 10:22:36;;;;;;;3.03;1.40;;;;;;;28.59;56.88;100403.41;5096879;28;20452;-70
2023/08/25 10:25:03;;;;;;;2.20;0.97;;;;;;;28.62;58.12;100402.56;5096365;28;20466;-70
2023/08/25 10:27:31;;;;;;;2.17;0.93;;;;;;;28.63;57.38;100409.69;5096365;28;20441;-71
2023/08/25 10:30:00;;;;;;;2.93;1.03;;;;;;;28.61;57.34;100412.13;5096280;28;20850;-70
2023/08/25 10:32:55;;;;;;;2.97;1.10;;;;;;;28.63;58.33;100409.69;5096523;28;20436;-71
2023/08/25 10:35:41;;;;;;;3.97;1.60;;;;;;;28.59;58.60;100420.13;5096183;28;20543;-71
2023/08/25 10:38:36;;;;;;;3.30;1.33;;;;;;;28.64;58.55;100419.63;5095882;28;20932;-71
2023/08/25 10:41:14;;;;;;;2.47;1.10;;;;;;;28.63;57.85;100429.22;5092945;28;20539;-71
2023/08/25 10:43:45;;;;;;;2.70;1.50;;;;;;;28.63;58.48;100420.84;5096102;28;20496;-70
2023/08/25 10:46:12;;;;;;;2.53;1.20;;;;;;;28.59;56.21;100426.50;5096107;28;20453;-70
2023/08/25 10:48:41;;;;;;;2.70;0.93;;;;;;;28.36;57.06;100418.97;5095606;28;20816;-70
2023/08/25 10:51:09;;;;;;;3.23;1.97;;;;;;;28.41;58.02;100418.47;5096255;28;20447;-70
2023/08/25 10:53:37;;;;;;;2.70;1.13;;;;;;;28.46;59.04;100421.97;5095836;28;20453;-70
2023/08/25 10:56:25;;;;;;;3.23;1.20;;;;;;;28.45;58.45;100431.56;5095708;28;20543;-70
2023/08/25 10:58:56;;;;;;;3.10;1.37;;;;;;;28.55;60.15;100422.97;5095934;28;20460;-70
2023/08/25 11:01:25;;;;;;;2.70;1.20;;;;;;;28.59;59.47;100414.56;5095489;28;20507;-70
2023/08/25 11:04:06;;;;;;;3.37;1.20;;;;;;;28.64;60.06;100411.25;5096019;28;20462;-70
2023/08/25 11:06:43;;;;;;;3.20;1.50;;;;;;;28.69;59.67;100419.16;5095596;28;20491;-70
2023/08/25 11:09:11;;;;;;;2.60;1.17;;;;;;;28.80;58.79;100425.28;5095660;28;20455;-71
2023/08/25 11:11:42;;;;;;;3.13;1.10;;;;;;;28.78;57.91;100421.34;5095512;28;20791;-71
2023/08/25 11:14:08;;;;;;;2.00;0.60;;;;;;;28.64;53.78;100428.00;5095530;28;21011;-71
2023/08/25 11:16:39;;;;;;;2.40;1.13;;;;;;;28.65;56.03;100426.78;5095340;28;20473;-71
2023/08/25 11:19:09;;;;;;;2.40;0.90;;;;;;;29.00;55.97;100419.72;5095471;28;20475;-71
2023/08/25 11:21:36;;;;;;;2.57;1.00;;;;;;;29.69;55.33;100424.53;5095363;28;20928;-71
2023/08/25 11:24:03;;;;;;;2.57;1.00;;;;;;;30.47;54.07;100418.94;5095361;28;20519;-70
2023/08/25 11:26:30;;;;;;;2.63;1.10;;;;;;;31.30;49.66;100423.72;5095178;28;20555;-71